createdAt,value
2023-02-24T00:00:34.277Z,94875.22
2023-02-24T00:03:11.511Z,94870.59
2023-02-24T00:05:44.738Z,94865.22
2023-02-24T00:08:13.986Z,94869.47
2023-02-24T00:10:43.156Z,94858.66
2023-02-24T00:13:13.607Z,94862.97
2023-02-24T00:15:43.025Z,94862.59
2023-02-24T00:18:12.162Z,94863.09
2023-02-24T00:20:41.373Z,94866.19
2023-02-24T00:23:11.143Z,94858.84
2023-02-24T00:25:40.199Z,94852.56
2023-02-24T00:28:09.310Z,94847.69
2023-02-24T00:30:40.201Z,94860.34
2023-02-24T00:33:12.659Z,94850.72
2023-02-24T00:35:41.769Z,94852.06
2023-02-24T00:38:13.379Z,94856.94
2023-02-24T00:40:45.511Z,94842.94
2023-02-24T00:43:14.590Z,94852.56
2023-02-24T00:45:45.114Z,94844.38
2023-02-24T00:48:15.590Z,94845.38
2023-02-24T00:50:45.041Z,94832.72
2023-02-24T00:53:14.192Z,94840.47
2023-02-24T00:55:43.312Z,94830.72
2023-02-24T00:58:12.425Z,94830.09
2023-02-24T01:00:43.688Z,94822.03
2023-02-24T01:03:14.233Z,94828.25
2023-02-24T01:05:43.327Z,94819.47
2023-02-24T01:08:14.085Z,94821.00
2023-02-24T01:11:06.422Z,94823.88
2023-02-24T01:13:34.414Z,94821.81
2023-02-24T01:16:03.477Z,94824.13
2023-02-24T01:18:33.876Z,94821.44
2023-02-24T01:21:03.064Z,94821.88
2023-02-24T01:23:32.434Z,94807.78
2023-02-24T01:26:05.600Z,94809.94
2023-02-24T01:28:34.788Z,94808.13
2023-02-24T01:31:05.585Z,94813.09
2023-02-24T01:33:37.762Z,94810.31
2023-02-24T01:36:11.595Z,94807.75
2023-02-24T01:38:43.084Z,94807.75
2023-02-24T01:41:17.022Z,94807.00
2023-02-24T01:44:03.722Z,94807.97
2023-02-24T01:46:34.942Z,94806.38
2023-02-24T01:49:09.794Z,94805.56
2023-02-24T01:51:43.876Z,94804.09
2023-02-24T01:54:16.373Z,94802.13
2023-02-24T01:56:49.015Z,94793.56
2023-02-24T01:59:23.780Z,94796.19
2023-02-24T02:02:04.737Z,94801.09
2023-02-24T02:04:42.928Z,94803.44
2023-02-24T02:07:14.139Z,94794.16
2023-02-24T02:09:45.233Z,94798.91
2023-02-24T02:12:15.410Z,94797.25
2023-02-24T02:14:48.417Z,94798.41
2023-02-24T02:17:27.537Z,94800.78
2023-02-24T02:20:24.266Z,94792.56
2023-02-24T02:23:30.082Z,94790.97
2023-02-24T02:26:19.045Z,94791.19
2023-02-24T02:29:28.989Z,94803.78
2023-02-24T02:32:25.263Z,94792.31
2023-02-24T02:34:58.477Z,94799.78
2023-02-24T02:37:33.210Z,94798.00
2023-02-24T02:40:17.472Z,94798.44
2023-02-24T02:42:50.709Z,94805.06
2023-02-24T02:45:26.110Z,94804.06
2023-02-24T02:48:00.931Z,94808.50
2023-02-24T02:50:39.056Z,94813.41
2023-02-24T02:53:13.743Z,94812.16
2023-02-24T02:55:47.577Z,94811.94
2023-02-24T02:58:20.994Z,94815.56
2023-02-24T03:01:02.317Z,94817.31
2023-02-24T03:03:34.325Z,94815.78
2023-02-24T03:06:08.049Z,94820.13
2023-02-24T03:08:41.440Z,94811.22
2023-02-24T03:11:16.663Z,94825.72
2023-02-24T03:13:50.161Z,94813.06
2023-02-24T03:16:21.288Z,94828.75
2023-02-24T03:18:55.154Z,94821.31
2023-02-24T03:21:33.618Z,94822.16
2023-02-24T03:24:05.896Z,94813.25
2023-02-24T03:26:43.309Z,94822.13
2023-02-24T03:29:19.428Z,94823.16
2023-02-24T03:31:51.868Z,94828.50
2023-02-24T03:34:29.011Z,94827.28
2023-02-24T03:37:00.419Z,94822.09
2023-02-24T03:39:30.836Z,94826.09
2023-02-24T03:42:14.413Z,94826.47
2023-02-24T03:44:44.334Z,94833.22
2023-02-24T03:47:15.417Z,94822.38
2023-02-24T03:49:45.606Z,94822.28
2023-02-24T03:52:32.705Z,94817.84
2023-02-24T03:55:22.480Z,94816.81
2023-02-24T03:58:05.640Z,94816.44
2023-02-24T04:00:47.898Z,94805.78
2023-02-24T04:03:28.228Z,94811.66
2023-02-24T04:06:14.527Z,94810.66
2023-02-24T04:08:52.602Z,94804.03
2023-02-24T04:11:29.329Z,94795.88
2023-02-24T04:14:06.709Z,94809.03
2023-02-24T04:16:43.388Z,94807.13
2023-02-24T04:19:18.116Z,94802.75
2023-02-24T04:21:51.367Z,94801.53
2023-02-24T04:24:31.779Z,94801.88
2023-02-24T04:27:07.824Z,94804.69
2023-02-24T04:29:57.131Z,94807.41
2023-02-24T04:32:29.699Z,94804.28
2023-02-24T04:35:04.335Z,94802.91
2023-02-24T04:37:34.241Z,94800.66
2023-02-24T04:40:10.880Z,94801.53
2023-02-24T04:42:46.757Z,94798.44
2023-02-24T04:45:17.943Z,94800.66
2023-02-24T04:47:49.698Z,94798.03
2023-02-24T04:50:24.279Z,94797.41
2023-02-24T04:52:54.691Z,94794.66
2023-02-24T04:55:29.673Z,94795.13
2023-02-24T04:57:59.283Z,94783.91
2023-02-24T05:00:33.825Z,94787.72
2023-02-24T05:03:05.680Z,94781.44
2023-02-24T05:05:35.848Z,94790.53
2023-02-24T05:08:08.046Z,94792.34
2023-02-24T05:10:41.150Z,94800.19
2023-02-24T05:13:11.415Z,94801.06
2023-02-24T05:15:43.195Z,94814.78
2023-02-24T05:18:17.375Z,94800.09
2023-02-24T05:21:05.817Z,94791.00
2023-02-24T05:23:39.483Z,94787.50
2023-02-24T05:26:10.638Z,94782.78
2023-02-24T05:28:41.995Z,94786.97
2023-02-24T05:31:15.287Z,94786.44
2023-02-24T05:33:45.859Z,94787.91
2023-02-24T05:36:18.123Z,94788.91
2023-02-24T05:38:48.556Z,94783.78
2023-02-24T05:41:20.228Z,94788.66
2023-02-24T05:43:55.049Z,94784.16
2023-02-24T05:46:28.544Z,94780.09
2023-02-24T05:48:58.515Z,94793.75
2023-02-24T05:51:28.381Z,94791.53
2023-02-24T05:53:58.177Z,94794.50
2023-02-24T05:56:28.972Z,94798.69
2023-02-24T05:59:02.362Z,94805.84
2023-02-24T06:01:32.798Z,94801.25
2023-02-24T06:04:06.174Z,94801.66
2023-02-24T06:06:36.630Z,94805.53
2023-02-24T06:09:10.970Z,94805.09
2023-02-24T06:11:43.398Z,94816.38
2023-02-24T06:14:14.319Z,94824.59
2023-02-24T06:16:46.201Z,94819.25
2023-02-24T06:19:18.930Z,94817.31
2023-02-24T06:21:48.650Z,94821.50
2023-02-24T06:24:18.803Z,94824.44
2023-02-24T06:26:50.440Z,94819.59
2023-02-24T06:29:19.688Z,94821.66
2023-02-24T06:31:49.548Z,94827.16
2023-02-24T06:34:19.777Z,94818.66
2023-02-24T06:36:49.415Z,94822.38
2023-02-24T06:39:18.652Z,94816.28
2023-02-24T06:41:51.876Z,94820.19
2023-02-24T06:44:20.659Z,94818.78
2023-02-24T06:46:50.381Z,94814.50
2023-02-24T06:49:19.948Z,94818.09
2023-02-24T06:51:48.999Z,94815.63
2023-02-24T06:54:19.377Z,94812.38
2023-02-24T06:56:49.938Z,94818.19
2023-02-24T06:59:21.998Z,94823.59
2023-02-24T07:01:51.143Z,94822.09
2023-02-24T07:04:21.156Z,94822.13
2023-02-24T07:06:52.678Z,94819.94
2023-02-24T07:09:24.268Z,94816.50
2023-02-24T07:11:57.036Z,94804.81
2023-02-24T07:14:27.903Z,94807.00
2023-02-24T07:16:58.513Z,94804.84
2023-02-24T07:19:29.427Z,94792.16
2023-02-24T07:22:02.293Z,94798.47
2023-02-24T07:24:37.405Z,94798.91
2023-02-24T07:27:10.168Z,94791.78
2023-02-24T07:29:39.636Z,94792.63
2023-02-24T07:32:10.823Z,94791.78
2023-02-24T07:34:41.104Z,94801.72
2023-02-24T07:37:11.175Z,94802.66
2023-02-24T07:39:40.941Z,94803.97
2023-02-24T07:42:14.076Z,94799.88
2023-02-24T07:44:49.522Z,94790.31
2023-02-24T07:47:18.686Z,94791.72
2023-02-24T07:49:47.864Z,94777.41
2023-02-24T07:52:16.921Z,94785.53
2023-02-24T07:54:46.042Z,94774.09
2023-02-24T07:57:19.130Z,94773.22
2023-02-24T07:59:48.534Z,94778.25
2023-02-24T08:02:18.615Z,94781.06
2023-02-24T08:04:51.765Z,94776.72
2023-02-24T08:07:25.389Z,94775.00
2023-02-24T08:10:12.374Z,94777.44
2023-02-24T08:12:44.412Z,94773.25
2023-02-24T08:15:24.396Z,94774.25
2023-02-24T08:17:59.793Z,94759.78
2023-02-24T08:20:30.287Z,94761.47
2023-02-24T08:22:59.441Z,94770.69
2023-02-24T08:25:36.670Z,94773.28
2023-02-24T08:28:11.873Z,94769.66
2023-02-24T08:30:46.252Z,94772.63
2023-02-24T08:33:23.348Z,94769.63
2023-02-24T08:36:01.974Z,94763.81
2023-02-24T08:38:42.355Z,94777.53
2023-02-24T08:41:18.580Z,94775.75
2023-02-24T08:43:50.491Z,94766.56
2023-02-24T08:46:26.943Z,94774.03
2023-02-24T08:48:58.269Z,94772.94
2023-02-24T08:51:30.317Z,94773.00
2023-02-24T08:54:02.662Z,94774.81
2023-02-24T08:56:35.148Z,94773.75
2023-02-24T08:59:07.519Z,94774.44
2023-02-24T09:01:38.507Z,94776.59
2023-02-24T09:04:10.529Z,94771.13
2023-02-24T09:06:44.478Z,94767.13
2023-02-24T09:09:19.235Z,94765.59
2023-02-24T09:11:49.746Z,94759.34
2023-02-24T09:14:27.226Z,94767.53
2023-02-24T09:17:05.766Z,94770.25
2023-02-24T09:20:02.447Z,94764.69
2023-02-24T09:22:33.440Z,94760.81
2023-02-24T09:25:21.595Z,94760.28
2023-02-24T09:27:57.378Z,94760.75
2023-02-24T09:30:39.514Z,94764.25
2023-02-24T09:33:21.090Z,94754.47
2023-02-24T09:35:53.449Z,94761.69
2023-02-24T09:38:45.636Z,94754.47
2023-02-24T09:41:53.888Z,94751.47
2023-02-24T09:44:28.747Z,94743.38
2023-02-24T09:47:09.382Z,94746.22
2023-02-24T09:49:48.447Z,94756.50
2023-02-24T09:52:19.724Z,94758.19
2023-02-24T09:55:11.225Z,94752.06
2023-02-24T09:58:16.684Z,94744.94
2023-02-24T10:00:56.094Z,94748.56
2023-02-24T10:03:46.400Z,94734.47
2023-02-24T10:06:21.111Z,94726.66
2023-02-24T10:08:56.187Z,94731.22
2023-02-24T10:11:34.300Z,94723.97
2023-02-24T10:14:07.400Z,94722.19
2023-02-24T10:16:46.623Z,94715.22
2023-02-24T10:19:28.217Z,94718.06
2023-02-24T10:22:04.670Z,94707.69
2023-02-24T10:24:41.486Z,94705.03
2023-02-24T10:27:17.903Z,94698.66
2023-02-24T10:30:06.049Z,94693.09
2023-02-24T10:32:47.537Z,94686.53
2023-02-24T10:35:20.532Z,94683.19
2023-02-24T10:37:50.742Z,94681.38
2023-02-24T10:40:26.733Z,94670.03
2023-02-24T10:43:10.939Z,94662.22
2023-02-24T10:45:45.650Z,94660.97
2023-02-24T10:48:40.710Z,94657.19
2023-02-24T10:51:22.187Z,94647.22
2023-02-24T10:54:10.428Z,94645.59
2023-02-24T10:56:45.083Z,94646.75
2023-02-24T10:59:41.690Z,94632.81
2023-02-24T11:02:30.096Z,94621.75
2023-02-24T11:05:27.000Z,94610.75
2023-02-24T11:08:15.992Z,94628.22
2023-02-24T11:10:59.073Z,94621.50
2023-02-24T11:13:45.539Z,94617.03
2023-02-24T11:16:31.987Z,94608.53
2023-02-24T11:19:01.165Z,94607.59
2023-02-24T11:21:32.195Z,94602.19
2023-02-24T11:24:03.729Z,94605.53
2023-02-24T11:26:37.530Z,94594.19
2023-02-24T11:29:28.040Z,94598.06
2023-02-24T11:32:17.266Z,94580.72
2023-02-24T11:34:54.574Z,94576.63
2023-02-24T11:37:38.043Z,94581.06
2023-02-24T11:40:12.218Z,94559.81
2023-02-24T11:42:46.406Z,94553.47
2023-02-24T11:45:26.774Z,94561.13
2023-02-24T11:48:00.545Z,94558.00
2023-02-24T11:50:43.981Z,94563.41
2023-02-24T11:53:19.882Z,94555.25
2023-02-24T11:55:59.345Z,94547.19
2023-02-24T11:58:36.749Z,94549.19
2023-02-24T12:01:14.655Z,94544.28
2023-02-24T12:03:52.400Z,94536.41
2023-02-24T12:06:30.976Z,94525.84
2023-02-24T12:09:09.950Z,94520.78
2023-02-24T12:11:50.339Z,94516.78
2023-02-24T12:14:29.980Z,94516.78
2023-02-24T12:17:08.131Z,94496.28
2023-02-24T12:19:42.582Z,94495.75
2023-02-24T12:22:16.145Z,94492.28
2023-02-24T12:24:50.118Z,94499.25
2023-02-24T12:27:35.349Z,94497.91
2023-02-24T12:30:34.497Z,94497.06
2023-02-24T12:33:20.135Z,94492.78
2023-02-24T12:35:58.539Z,94496.22
2023-02-24T12:38:41.574Z,94487.31
2023-02-24T12:41:29.732Z,94483.28
2023-02-24T12:44:09.053Z,94470.47
2023-02-24T12:46:40.292Z,94471.13
2023-02-24T12:49:38.917Z,94466.06
2023-02-24T12:52:20.840Z,94476.97
2023-02-24T12:54:56.784Z,94473.81
2023-02-24T12:57:33.701Z,94468.66
2023-02-24T13:00:12.348Z,94458.84
2023-02-24T13:02:54.087Z,94461.69
2023-02-24T13:05:31.472Z,94452.94
2023-02-24T13:08:20.068Z,94447.84
2023-02-24T13:10:52.660Z,94445.72
2023-02-24T13:13:28.595Z,94450.00
2023-02-24T13:16:01.558Z,94452.56
2023-02-24T13:18:32.993Z,94453.88
2023-02-24T13:21:08.792Z,94446.16
2023-02-24T13:23:42.502Z,94449.81
2023-02-24T13:26:12.058Z,94441.84
2023-02-24T13:28:41.293Z,94453.06
2023-02-24T13:31:14.009Z,94446.94
2023-02-24T13:33:45.286Z,94442.72
2023-02-24T13:36:17.703Z,94431.84
2023-02-24T13:38:48.661Z,94437.38
2023-02-24T13:41:41.101Z,94429.97
2023-02-24T13:44:29.108Z,94425.72
2023-02-24T13:47:20.048Z,94436.59
2023-02-24T13:50:03.613Z,94425.97
2023-02-24T13:52:48.933Z,94425.69
2023-02-24T13:55:31.692Z,94422.81
2023-02-24T13:58:20.442Z,94420.41
2023-02-24T14:01:03.221Z,94428.09
2023-02-24T14:03:35.188Z,94428.09
2023-02-24T14:06:08.452Z,94419.47
2023-02-24T14:08:45.791Z,94419.81
2023-02-24T14:11:18.139Z,94428.81
2023-02-24T14:13:51.740Z,94423.31
2023-02-24T14:16:24.462Z,94417.53
2023-02-24T14:18:57.475Z,94413.56
2023-02-24T14:21:28.450Z,94419.44
2023-02-24T14:23:59.007Z,94406.13
2023-02-24T14:26:29.333Z,94408.78
2023-02-24T14:29:02.066Z,94408.75
2023-02-24T14:50:18.114Z,94389.53
2023-02-24T14:52:51.633Z,94384.75
2023-02-24T14:55:23.840Z,94393.50
2023-02-24T14:57:59.518Z,94387.88
2023-02-24T15:00:33.772Z,94387.00
2023-02-24T15:03:07.884Z,94391.44
2023-02-24T15:05:46.100Z,94393.16
2023-02-24T15:08:28.318Z,94383.94
2023-02-24T15:10:58.092Z,94387.88
2023-02-24T15:13:35.185Z,94385.88
2023-02-24T15:16:13.243Z,94376.50
2023-02-24T15:18:43.164Z,94378.34
2023-02-24T15:21:22.143Z,94379.50
2023-02-24T15:23:59.948Z,94378.00
2023-02-24T15:26:31.387Z,94381.72
2023-02-24T15:29:02.241Z,94381.72
2023-02-24T15:31:32.094Z,94362.91
2023-02-24T15:34:03.976Z,94371.13
2023-02-24T15:36:37.018Z,94372.50
2023-02-24T15:39:09.220Z,94376.78
2023-02-24T15:41:43.581Z,94374.44
2023-02-24T15:44:27.805Z,94373.16
2023-02-24T15:46:57.873Z,94368.63
2023-02-24T15:49:27.752Z,94368.59
2023-02-24T15:52:01.568Z,94360.34
2023-02-24T15:54:33.519Z,94359.31
2023-02-24T15:57:05.583Z,94363.00
2023-02-24T15:59:34.616Z,94362.72
2023-02-24T16:02:06.465Z,94355.81
2023-02-24T16:04:35.502Z,94355.50
2023-02-24T16:07:08.361Z,94345.44
2023-02-24T16:09:41.167Z,94357.19
2023-02-24T16:12:15.206Z,94356.44
2023-02-24T16:14:45.616Z,94357.69
2023-02-24T16:17:23.582Z,94364.50
2023-02-24T16:19:52.892Z,94359.91
2023-02-24T16:22:23.554Z,94358.78
2023-02-24T16:24:52.879Z,94364.31
2023-02-24T16:27:24.056Z,94360.56
2023-02-24T16:29:53.426Z,94363.72
2023-02-24T16:32:23.989Z,94362.84
2023-02-24T16:34:53.407Z,94363.22
2023-02-24T16:37:25.977Z,94371.19
2023-02-24T16:39:55.506Z,94374.59
2023-02-24T16:42:33.917Z,94371.06
2023-02-24T16:45:03.059Z,94373.72
2023-02-24T16:47:35.909Z,94371.25
2023-02-24T16:50:08.623Z,94366.47
2023-02-24T16:52:39.166Z,94371.13
2023-02-24T16:55:13.403Z,94370.47
2023-02-24T16:57:43.146Z,94373.88
2023-02-24T17:00:15.032Z,94368.94
2023-02-24T17:02:48.030Z,94376.28
2023-02-24T17:05:19.793Z,94369.91
2023-02-24T17:07:51.743Z,94366.44
2023-02-24T17:10:21.963Z,94371.97
2023-02-24T17:12:51.603Z,94372.44
2023-02-24T17:15:22.232Z,94377.19
2023-02-24T17:17:51.571Z,94374.00
2023-02-24T17:20:22.292Z,94365.41
2023-02-24T17:22:52.914Z,94368.94
2023-02-24T17:25:24.997Z,94368.16
2023-02-24T17:27:55.300Z,94369.66
2023-02-24T17:30:27.325Z,94372.56
2023-02-24T17:32:56.812Z,94368.00
2023-02-24T17:35:26.049Z,94361.44
2023-02-24T17:37:56.985Z,94361.50
2023-02-24T17:40:30.265Z,94361.69
2023-02-24T17:42:59.452Z,94365.59
2023-02-24T17:45:28.602Z,94365.00
2023-02-24T17:47:57.838Z,94366.84
2023-02-24T17:50:27.308Z,94367.56
2023-02-24T17:52:58.062Z,94367.19
2023-02-24T17:55:27.600Z,94366.06
2023-02-24T17:57:57.330Z,94367.19
2023-02-24T18:00:27.042Z,94363.66
2023-02-24T18:02:56.670Z,94358.13
2023-02-24T18:05:25.905Z,94369.44
2023-02-24T18:07:58.644Z,94367.56
2023-02-24T18:10:28.458Z,94365.91
2023-02-24T18:12:57.655Z,94363.81
2023-02-24T18:15:26.895Z,94364.78
2023-02-24T18:17:56.112Z,94373.28
2023-02-24T18:20:26.287Z,94368.31
2023-02-24T18:22:57.351Z,94373.22
2023-02-24T18:25:26.548Z,94369.75
2023-02-24T18:27:55.676Z,94373.66
2023-02-24T18:30:24.927Z,94368.06
2023-02-24T18:32:54.105Z,94369.13
2023-02-24T18:35:23.912Z,94359.84
2023-02-24T18:37:56.876Z,94363.53
2023-02-24T18:40:28.507Z,94361.78
2023-02-24T18:42:57.845Z,94360.72
2023-02-24T18:45:26.985Z,94363.28
2023-02-24T18:47:56.134Z,94360.31
2023-02-24T18:50:25.437Z,94365.38
2023-02-24T18:52:54.452Z,94361.75
2023-02-24T18:55:23.637Z,94360.16
2023-02-24T18:57:54.310Z,94360.09
2023-02-24T19:00:24.162Z,94362.72
2023-02-24T19:02:53.435Z,94361.09
2023-02-24T19:05:22.513Z,94360.63
2023-02-24T19:07:51.693Z,94359.41
2023-02-24T19:10:20.912Z,94355.63
2023-02-24T19:12:51.302Z,94362.34
2023-02-24T19:15:22.661Z,94367.50
2023-02-24T19:17:51.715Z,94366.41
2023-02-24T19:20:21.344Z,94366.84
2023-02-24T19:22:51.687Z,94362.63
2023-02-24T19:25:23.912Z,94381.47
2023-02-24T19:27:54.698Z,94372.84
2023-02-24T19:30:25.284Z,94387.31
2023-02-24T19:32:54.868Z,94379.75
2023-02-24T19:35:24.115Z,94374.84
2023-02-24T19:37:53.431Z,94377.16
2023-02-24T19:40:23.820Z,94380.72
2023-02-24T19:42:53.418Z,94371.00
2023-02-24T19:45:22.397Z,94366.56
2023-02-24T19:47:52.777Z,94376.28
2023-02-24T19:50:22.388Z,94374.81
2023-02-24T19:52:51.452Z,94370.81
2023-02-24T19:55:20.908Z,94364.53
2023-02-24T19:57:54.089Z,94370.03
2023-02-24T20:00:23.752Z,94367.25
2023-02-24T20:02:54.700Z,94379.09
2023-02-24T20:05:25.047Z,94368.19
2023-02-24T20:07:54.034Z,94379.09
2023-02-24T20:10:23.017Z,94374.72
2023-02-24T20:12:52.000Z,94376.53
2023-02-24T20:15:21.166Z,94373.00
2023-02-24T20:17:50.511Z,94378.06
2023-02-24T20:20:21.789Z,94369.34
2023-02-24T20:22:51.093Z,94368.84
2023-02-24T20:25:20.326Z,94361.66
2023-02-24T20:27:49.442Z,94354.56
2023-02-24T20:30:18.821Z,94361.88
2023-02-24T20:32:48.570Z,94357.53
2023-02-24T20:35:17.898Z,94352.94
2023-02-24T20:37:49.216Z,94360.38
2023-02-24T20:40:18.612Z,94363.66
2023-02-24T20:42:47.763Z,94364.00
2023-02-24T20:45:16.916Z,94360.94
2023-02-24T20:47:45.966Z,94363.22
2023-02-24T20:50:15.077Z,94360.91
2023-02-24T20:52:44.187Z,94353.66
2023-02-24T20:55:14.576Z,94354.66
2023-02-24T20:57:43.691Z,94354.31
2023-02-24T21:00:15.748Z,94349.00
2023-02-24T21:02:44.998Z,94336.19
2023-02-24T21:05:23.360Z,94339.25
2023-02-24T21:07:52.431Z,94333.41
2023-02-24T21:10:25.271Z,94337.75
2023-02-24T21:12:54.641Z,94340.91
2023-02-24T21:15:23.687Z,94338.97
2023-02-24T21:17:52.805Z,94341.06
2023-02-24T21:20:22.027Z,94348.88
2023-02-24T21:22:50.963Z,94338.88
2023-02-24T21:25:20.523Z,94341.28
2023-02-24T21:27:50.978Z,94340.63
2023-02-24T21:30:20.233Z,94337.94
2023-02-24T21:32:49.574Z,94346.09
2023-02-24T21:35:18.779Z,94338.13
2023-02-24T21:37:47.747Z,94344.03
2023-02-24T21:40:17.871Z,94349.88
2023-02-24T21:42:47.829Z,94339.09
2023-02-24T21:45:19.506Z,94338.97
2023-02-24T21:47:49.207Z,94336.56
2023-02-24T21:50:18.932Z,94343.63
2023-02-24T21:52:48.187Z,94340.56
2023-02-24T21:55:19.494Z,94339.75
2023-02-24T21:57:48.565Z,94339.88
2023-02-24T22:00:20.153Z,94332.47
2023-02-24T22:02:50.802Z,94335.22
2023-02-24T22:05:20.656Z,94329.53
2023-02-24T22:07:51.241Z,94323.13
2023-02-24T22:10:22.481Z,94329.75
2023-02-24T22:12:52.124Z,94327.56
2023-02-24T22:15:22.713Z,94322.91
2023-02-24T22:17:51.623Z,94320.78
2023-02-24T22:20:20.790Z,94332.47
2023-02-24T22:22:49.886Z,94328.16
2023-02-24T22:25:18.922Z,94322.97
2023-02-24T22:27:48.068Z,94321.31
2023-02-24T22:30:17.199Z,94321.88
2023-02-24T22:32:47.825Z,94320.44
2023-02-24T22:35:17.041Z,94313.19
2023-02-24T22:37:46.154Z,94319.25
2023-02-24T22:40:15.307Z,94318.44
2023-02-24T22:42:44.912Z,94314.81
2023-02-24T22:45:13.889Z,94319.47
2023-02-24T22:47:42.969Z,94315.16
2023-02-24T22:50:14.193Z,94315.38
2023-02-24T22:52:43.143Z,94312.81
2023-02-24T22:55:12.937Z,94316.84
2023-02-24T22:57:42.177Z,94316.84
2023-02-24T23:00:20.414Z,94320.41
2023-02-24T23:02:49.553Z,94313.03
2023-02-24T23:05:19.961Z,94317.06
2023-02-24T23:07:49.000Z,94309.81
2023-02-24T23:10:18.647Z,94303.13
2023-02-24T23:12:48.488Z,94296.19
2023-02-24T23:15:17.815Z,94303.72
2023-02-24T23:17:46.772Z,94297.81
2023-02-24T23:20:16.428Z,94294.38
2023-02-24T23:22:46.795Z,94291.75
2023-02-24T23:25:15.713Z,94291.63
2023-02-24T23:27:44.581Z,94299.50
2023-02-24T23:30:13.957Z,94292.13
2023-02-24T23:32:44.113Z,94286.78
2023-02-24T23:35:13.948Z,94287.88
2023-02-24T23:37:43.376Z,94296.06
2023-02-24T23:40:15.574Z,94295.47
2023-02-24T23:42:46.431Z,94297.44
2023-02-24T23:45:15.468Z,94292.00
2023-02-24T23:47:44.678Z,94295.41
2023-02-24T23:50:15.469Z,94295.97
2023-02-24T23:52:44.565Z,94294.16
2023-02-24T23:55:15.867Z,94289.50
2023-02-24T23:57:44.883Z,94286.22
